sensor_id;sensor_type;location;lat;lon;timestamp;pressure;altitude;pressure_sealevel;temperature;humidity
19236;BME280;9752;54.270;12.470;2023-03-24T00:01:47;101007.03;;;7.76;100.00
19236;BME280;9752;54.270;12.470;2023-03-24T00:06:49;101002.34;;;7.82;100.00
19236;BME280;9752;54.270;12.470;2023-03-24T00:11:51;100988.84;;;7.86;100.00
19236;BME280;9752;54.270;12.470;2023-03-24T00:16:55;100991.22;;;7.95;100.00
19236;BME280;9752;54.270;12.470;2023-03-24T00:21:58;100980.22;;;7.97;100.00
19236;BME280;9752;54.270;12.470;2023-03-24T00:27:00;100971.00;;;8.01;100.00
19236;BME280;9752;54.270;12.470;2023-03-24T00:32:04;100967.53;;;8.12;100.00
19236;BME280;9752;54.270;12.470;2023-03-24T00:37:07;100963.03;;;8.21;100.00
19236;BME280;9752;54.270;12.470;2023-03-24T00:42:09;100957.59;;;8.30;100.00
19236;BME280;9752;54.270;12.470;2023-03-24T00:47:14;100946.16;;;8.38;100.00
19236;BME280;9752;54.270;12.470;2023-03-24T00:52:18;100941.56;;;8.46;100.00
19236;BME280;9752;54.270;12.470;2023-03-24T00:57:21;100923.88;;;8.52;100.00
19236;BME280;9752;54.270;12.470;2023-03-24T01:02:25;100911.16;;;8.55;100.00
19236;BME280;9752;54.270;12.470;2023-03-24T01:07:28;100899.63;;;8.50;100.00
19236;BME280;9752;54.270;12.470;2023-03-24T01:12:34;100876.94;;;8.46;100.00
19236;BME280;9752;54.270;12.470;2023-03-24T01:17:37;100866.00;;;8.50;100.00
19236;BME280;9752;54.270;12.470;2023-03-24T01:22:41;100860.03;;;8.51;100.00
19236;BME280;9752;54.270;12.470;2023-03-24T01:27:44;100848.31;;;8.56;100.00
19236;BME280;9752;54.270;12.470;2023-03-24T01:32:48;100839.50;;;8.66;100.00
19236;BME280;9752;54.270;12.470;2023-03-24T01:37:50;100830.56;;;8.74;100.00
19236;BME280;9752;54.270;12.470;2023-03-24T01:42:52;100816.28;;;8.79;100.00
19236;BME280;9752;54.270;12.470;2023-03-24T01:47:56;100809.13;;;8.89;100.00
19236;BME280;9752;54.270;12.470;2023-03-24T01:52:58;100791.91;;;8.89;100.00
19236;BME280;9752;54.270;12.470;2023-03-24T01:58:01;100779.91;;;8.90;100.00
19236;BME280;9752;54.270;12.470;2023-03-24T02:03:18;100756.03;;;8.94;100.00
19236;BME280;9752;54.270;12.470;2023-03-24T02:08:31;100730.66;;;9.02;100.00
19236;BME280;9752;54.270;12.470;2023-03-24T02:13:33;100717.91;;;9.05;100.00
19236;BME280;9752;54.270;12.470;2023-03-24T02:18:43;100701.59;;;9.06;100.00
19236;BME280;9752;54.270;12.470;2023-03-24T02:23:56;100695.03;;;9.11;100.00
19236;BME280;9752;54.270;12.470;2023-03-24T02:29:31;100678.91;;;9.15;100.00
19236;BME280;9752;54.270;12.470;2023-03-24T02:35:07;100664.56;;;9.20;100.00
19236;BME280;9752;54.270;12.470;2023-03-24T02:40:33;100655.28;;;9.24;100.00
19236;BME280;9752;54.270;12.470;2023-03-24T02:45:41;100635.66;;;9.27;100.00
19236;BME280;9752;54.270;12.470;2023-03-24T02:50:50;100624.72;;;9.31;100.00
19236;BME280;9752;54.270;12.470;2023-03-24T02:55:57;100610.59;;;9.26;100.00
19236;BME280;9752;54.270;12.470;2023-03-24T03:01:05;100598.75;;;9.30;100.00
19236;BME280;9752;54.270;12.470;2023-03-24T03:06:19;100591.97;;;9.32;100.00
19236;BME280;9752;54.270;12.470;2023-03-24T03:11:24;100579.13;;;9.33;100.00
19236;BME280;9752;54.270;12.470;2023-03-24T03:16:31;100583.22;;;9.30;100.00
19236;BME280;9752;54.270;12.470;2023-03-24T03:21:40;100582.25;;;9.28;100.00
19236;BME280;9752;54.270;12.470;2023-03-24T03:26:47;100580.53;;;9.28;100.00
19236;BME280;9752;54.270;12.470;2023-03-24T03:31:54;100585.00;;;9.31;100.00
19236;BME280;9752;54.270;12.470;2023-03-24T03:37:05;100580.53;;;9.28;100.00
19236;BME280;9752;54.270;12.470;2023-03-24T03:42:10;100585.72;;;9.28;100.00
19236;BME280;9752;54.270;12.470;2023-03-24T03:47:13;100581.44;;;9.29;100.00
19236;BME280;9752;54.270;12.470;2023-03-24T03:52:18;100595.97;;;9.27;100.00
19236;BME280;9752;54.270;12.470;2023-03-24T03:57:25;100585.88;;;9.31;100.00
19236;BME280;9752;54.270;12.470;2023-03-24T04:03:01;100593.47;;;9.28;100.00
19236;BME280;9752;54.270;12.470;2023-03-24T04:08:14;100584.91;;;9.29;100.00
19236;BME280;9752;54.270;12.470;2023-03-24T04:13:36;100592.66;;;9.29;100.00
19236;BME280;9752;54.270;12.470;2023-03-24T04:19:06;100591.88;;;9.30;100.00
19236;BME280;9752;54.270;12.470;2023-03-24T04:24:19;100593.94;;;9.36;100.00
19236;BME280;9752;54.270;12.470;2023-03-24T04:29:37;100591.06;;;9.31;100.00
19236;BME280;9752;54.270;12.470;2023-03-24T04:34:47;100589.50;;;9.33;100.00
19236;BME280;9752;54.270;12.470;2023-03-24T04:40:20;100594.75;;;9.35;100.00
19236;BME280;9752;54.270;12.470;2023-03-24T04:45:25;100584.31;;;9.33;100.00
19236;BME280;9752;54.270;12.470;2023-03-24T04:50:53;100580.44;;;9.27;100.00
19236;BME280;9752;54.270;12.470;2023-03-24T04:56:05;100566.78;;;9.29;100.00
19236;BME280;9752;54.270;12.470;2023-03-24T05:01:32;100563.59;;;9.33;100.00
19236;BME280;9752;54.270;12.470;2023-03-24T05:06:55;100568.16;;;9.37;100.00
19236;BME280;9752;54.270;12.470;2023-03-24T05:12:00;100558.81;;;9.40;100.00
19236;BME280;9752;54.270;12.470;2023-03-24T05:17:06;100558.28;;;9.45;100.00
19236;BME280;9752;54.270;12.470;2023-03-24T05:22:08;100539.34;;;9.46;100.00
19236;BME280;9752;54.270;12.470;2023-03-24T05:27:10;100539.34;;;9.46;100.00
19236;BME280;9752;54.270;12.470;2023-03-24T05:32:14;100544.50;;;9.46;100.00
19236;BME280;9752;54.270;12.470;2023-03-24T05:37:16;100548.09;;;9.48;100.00
19236;BME280;9752;54.270;12.470;2023-03-24T05:42:22;100538.66;;;9.49;100.00
19236;BME280;9752;54.270;12.470;2023-03-24T05:47:26;100546.25;;;9.61;100.00
19236;BME280;9752;54.270;12.470;2023-03-24T05:52:28;100544.03;;;9.67;100.00
19236;BME280;9752;54.270;12.470;2023-03-24T05:57:43;100521.69;;;9.69;100.00
19236;BME280;9752;54.270;12.470;2023-03-24T06:02:49;100510.91;;;9.76;100.00
19236;BME280;9752;54.270;12.470;2023-03-24T06:08:17;100507.69;;;9.80;100.00
19236;BME280;9752;54.270;12.470;2023-03-24T06:13:19;100496.69;;;9.84;100.00
19236;BME280;9752;54.270;12.470;2023-03-24T06:18:22;100492.69;;;9.89;100.00
19236;BME280;9752;54.270;12.470;2023-03-24T06:23:27;100484.38;;;9.95;100.00
19236;BME280;9752;54.270;12.470;2023-03-24T06:28:36;100487.41;;;9.88;100.00
19236;BME280;9752;54.270;12.470;2023-03-24T06:33:48;100481.25;;;10.01;100.00
19236;BME280;9752;54.270;12.470;2023-03-24T06:38:51;100482.00;;;10.14;100.00
19236;BME280;9752;54.270;12.470;2023-03-24T06:43:54;100487.72;;;10.24;100.00
19236;BME280;9752;54.270;12.470;2023-03-24T06:48:58;100477.34;;;10.24;100.00
19236;BME280;9752;54.270;12.470;2023-03-24T06:54:00;100479.63;;;10.49;100.00
19236;BME280;9752;54.270;12.470;2023-03-24T06:59:02;100468.16;;;10.60;100.00
19236;BME280;9752;54.270;12.470;2023-03-24T07:04:08;100446.38;;;10.73;100.00
19236;BME280;9752;54.270;12.470;2023-03-24T07:09:28;100437.66;;;10.87;100.00
19236;BME280;9752;54.270;12.470;2023-03-24T07:14:31;100423.34;;;10.96;100.00
19236;BME280;9752;54.270;12.470;2023-03-24T07:19:36;100392.97;;;10.77;100.00
19236;BME280;9752;54.270;12.470;2023-03-24T07:24:58;100390.63;;;10.65;100.00
19236;BME280;9752;54.270;12.470;2023-03-24T07:30:26;100379.19;;;10.78;100.00
19236;BME280;9752;54.270;12.470;2023-03-24T07:35:30;100386.81;;;10.91;100.00
19236;BME280;9752;54.270;12.470;2023-03-24T07:40:32;100381.19;;;11.00;100.00
19236;BME280;9752;54.270;12.470;2023-03-24T07:45:34;100390.50;;;11.12;100.00
19236;BME280;9752;54.270;12.470;2023-03-24T07:50:38;100390.16;;;11.23;100.00
19236;BME280;9752;54.270;12.470;2023-03-24T07:55:59;100384.03;;;11.39;100.00
19236;BME280;9752;54.270;12.470;2023-03-24T08:01:01;100373.97;;;11.28;100.00
19236;BME280;9752;54.270;12.470;2023-03-24T08:06:14;100364.50;;;11.29;100.00
19236;BME280;9752;54.270;12.470;2023-03-24T08:11:24;100345.84;;;11.54;100.00
19236;BME280;9752;54.270;12.470;2023-03-24T08:16:26;100343.75;;;11.83;100.00
19236;BME280;9752;54.270;12.470;2023-03-24T08:21:29;100333.22;;;11.98;100.00
19236;BME280;9752;54.270;12.470;2023-03-24T08:26:31;100313.25;;;11.79;100.00
19236;BME280;9752;54.270;12.470;2023-03-24T08:31:35;100298.59;;;11.99;100.00
19236;BME280;9752;54.270;12.470;2023-03-24T08:36:38;100301.59;;;12.26;100.00
19236;BME280;9752;54.270;12.470;2023-03-24T08:41:40;100290.28;;;12.25;100.00
19236;BME280;9752;54.270;12.470;2023-03-24T08:46:42;100289.09;;;12.56;100.00
19236;BME280;9752;54.270;12.470;2023-03-24T08:51:45;100278.56;;;12.74;100.00
19236;BME280;9752;54.270;12.470;2023-03-24T08:56:47;100252.44;;;12.52;100.00
19236;BME280;9752;54.270;12.470;2023-03-24T09:01:49;100244.63;;;12.52;100.00
19236;BME280;9752;54.270;12.470;2023-03-24T09:06:52;100234.66;;;12.41;100.00
19236;BME280;9752;54.270;12.470;2023-03-24T09:11:59;100254.66;;;12.83;100.00
19236;BME280;9752;54.270;12.470;2023-03-24T09:17:01;100225.00;;;12.58;100.00
19236;BME280;9752;54.270;12.470;2023-03-24T09:22:04;100198.72;;;12.33;100.00
19236;BME280;9752;54.270;12.470;2023-03-24T09:27:06;100209.75;;;12.46;100.00
19236;BME280;9752;54.270;12.470;2023-03-24T09:32:08;100250.56;;;12.28;100.00
19236;BME280;9752;54.270;12.470;2023-03-24T09:37:11;100258.22;;;12.25;100.00
19236;BME280;9752;54.270;12.470;2023-03-24T09:42:19;100225.84;;;12.18;100.00
19236;BME280;9752;54.270;12.470;2023-03-24T09:47:27;100210.41;;;12.62;100.00
19236;BME280;9752;54.270;12.470;2023-03-24T09:52:34;100123.78;;;12.43;100.00
19236;BME280;9752;54.270;12.470;2023-03-24T09:57:40;100051.22;;;12.28;100.00
19236;BME280;9752;54.270;12.470;2023-03-24T10:02:44;99989.38;;;12.00;100.00
19236;BME280;9752;54.270;12.470;2023-03-24T10:07:49;99932.19;;;12.21;100.00
19236;BME280;9752;54.270;12.470;2023-03-24T10:13:02;99907.44;;;12.08;100.00
19236;BME280;9752;54.270;12.470;2023-03-24T10:18:19;99891.50;;;12.01;100.00
19236;BME280;9752;54.270;12.470;2023-03-24T10:23:34;99886.66;;;11.89;100.00
19236;BME280;9752;54.270;12.470;2023-03-24T10:28:41;99881.06;;;11.99;100.00
19236;BME280;9752;54.270;12.470;2023-03-24T10:33:45;99871.97;;;11.68;100.00
19236;BME280;9752;54.270;12.470;2023-03-24T10:38:48;99835.94;;;11.97;100.00
19236;BME280;9752;54.270;12.470;2023-03-24T10:43:51;99831.19;;;12.32;100.00
19236;BME280;9752;54.270;12.470;2023-03-24T10:49:06;99834.53;;;12.05;100.00
19236;BME280;9752;54.270;12.470;2023-03-24T10:54:13;99838.50;;;12.18;100.00
19236;BME280;9752;54.270;12.470;2023-03-24T10:59:23;99858.50;;;12.21;100.00
19236;BME280;9752;54.270;12.470;2023-03-24T11:04:28;99846.72;;;12.77;100.00
19236;BME280;9752;54.270;12.470;2023-03-24T11:09:40;99829.09;;;12.22;100.00
19236;BME280;9752;54.270;12.470;2023-03-24T11:14:43;99828.13;;;12.20;100.00
19236;BME280;9752;54.270;12.470;2023-03-24T11:19:52;99843.97;;;12.03;100.00
19236;BME280;9752;54.270;12.470;2023-03-24T11:24:56;99856.66;;;11.96;100.00
19236;BME280;9752;54.270;12.470;2023-03-24T11:29:57;99865.66;;;11.83;100.00
19236;BME280;9752;54.270;12.470;2023-03-24T11:35:02;99848.22;;;12.01;100.00
19236;BME280;9752;54.270;12.470;2023-03-24T11:40:17;99858.38;;;12.18;100.00
19236;BME280;9752;54.270;12.470;2023-03-24T11:45:24;99860.22;;;11.77;100.00
19236;BME280;9752;54.270;12.470;2023-03-24T11:50:28;99894.44;;;12.08;100.00
19236;BME280;9752;54.270;12.470;2023-03-24T11:55:41;99887.69;;;12.14;100.00
19236;BME280;9752;54.270;12.470;2023-03-24T12:00:47;99879.94;;;12.38;100.00
19236;BME280;9752;54.270;12.470;2023-03-24T12:05:59;99896.75;;;12.70;100.00
19236;BME280;9752;54.270;12.470;2023-03-24T12:11:11;99893.47;;;12.98;100.00
19236;BME280;9752;54.270;12.470;2023-03-24T12:16:23;99909.34;;;12.35;100.00
19236;BME280;9752;54.270;12.470;2023-03-24T12:21:39;99911.22;;;12.17;100.00
19236;BME280;9752;54.270;12.470;2023-03-24T12:26:47;99920.75;;;12.18;100.00
19236;BME280;9752;54.270;12.470;2023-03-24T12:32:04;99921.03;;;12.24;100.00
19236;BME280;9752;54.270;12.470;2023-03-24T12:37:14;99923.03;;;12.31;100.00
19236;BME280;9752;54.270;12.470;2023-03-24T12:42:22;99921.97;;;12.71;100.00
19236;BME280;9752;54.270;12.470;2023-03-24T12:47:38;99920.06;;;12.44;100.00
19236;BME280;9752;54.270;12.470;2023-03-24T12:52:56;99912.72;;;12.79;100.00
19236;BME280;9752;54.270;12.470;2023-03-24T12:58:06;99911.84;;;13.03;100.00
19236;BME280;9752;54.270;12.470;2023-03-24T13:03:13;99907.34;;;12.99;100.00
19236;BME280;9752;54.270;12.470;2023-03-24T13:08:20;99909.28;;;12.80;100.00
19236;BME280;9752;54.270;12.470;2023-03-24T13:13:32;99920.28;;;12.96;100.00
19236;BME280;9752;54.270;12.470;2023-03-24T13:18:38;99898.47;;;13.18;100.00
19236;BME280;9752;54.270;12.470;2023-03-24T13:23:48;99898.81;;;13.27;100.00
19236;BME280;9752;54.270;12.470;2023-03-24T13:29:03;99891.91;;;13.03;100.00
19236;BME280;9752;54.270;12.470;2023-03-24T13:34:20;99877.25;;;13.07;100.00
19236;BME280;9752;54.270;12.470;2023-03-24T13:39:24;99896.53;;;13.12;100.00
19236;BME280;9752;54.270;12.470;2023-03-24T13:44:33;99900.31;;;13.20;100.00
19236;BME280;9752;54.270;12.470;2023-03-24T13:49:38;99902.88;;;12.95;100.00
19236;BME280;9752;54.270;12.470;2023-03-24T13:54:41;99908.28;;;13.01;100.00
19236;BME280;9752;54.270;12.470;2023-03-24T13:59:59;99913.00;;;13.11;100.00
19236;BME280;9752;54.270;12.470;2023-03-24T14:05:11;99924.44;;;13.15;100.00
19236;BME280;9752;54.270;12.470;2023-03-24T14:10:38;99910.41;;;13.11;100.00
19236;BME280;9752;54.270;12.470;2023-03-24T14:15:43;99911.97;;;13.30;100.00
19236;BME280;9752;54.270;12.470;2023-03-24T14:20:59;99920.16;;;13.17;100.00
19236;BME280;9752;54.270;12.470;2023-03-24T14:26:01;99937.53;;;12.94;100.00
19236;BME280;9752;54.270;12.470;2023-03-24T14:31:19;99937.81;;;12.55;100.00
19236;BME280;9752;54.270;12.470;2023-03-24T14:36:26;99933.63;;;12.58;100.00
19236;BME280;9752;54.270;12.470;2023-03-24T14:41:29;99932.69;;;12.34;100.00
19236;BME280;9752;54.270;12.470;2023-03-24T14:46:37;99933.19;;;12.25;100.00
19236;BME280;9752;54.270;12.470;2023-03-24T14:51:41;99943.22;;;12.16;100.00
19236;BME280;9752;54.270;12.470;2023-03-24T14:56:47;99947.34;;;12.54;100.00
19236;BME280;9752;54.270;12.470;2023-03-24T15:02:00;99942.59;;;12.66;100.00
19236;BME280;9752;54.270;12.470;2023-03-24T15:07:04;99938.38;;;12.93;100.00
19236;BME280;9752;54.270;12.470;2023-03-24T15:12:07;99956.72;;;13.95;100.00
19236;BME280;9752;54.270;12.470;2023-03-24T15:17:18;99941.13;;;14.24;100.00
19236;BME280;9752;54.270;12.470;2023-03-24T15:22:22;99945.16;;;14.69;100.00
19236;BME280;9752;54.270;12.470;2023-03-24T15:27:25;99949.78;;;15.09;100.00
19236;BME280;9752;54.270;12.470;2023-03-24T15:32:28;99946.25;;;14.77;100.00
19236;BME280;9752;54.270;12.470;2023-03-24T15:37:33;99952.47;;;15.42;100.00
19236;BME280;9752;54.270;12.470;2023-03-24T15:42:39;99956.63;;;15.68;100.00
19236;BME280;9752;54.270;12.470;2023-03-24T15:47:43;99962.34;;;15.54;100.00
19236;BME280;9752;54.270;12.470;2023-03-24T15:52:57;99986.91;;;14.41;100.00
19236;BME280;9752;54.270;12.470;2023-03-24T15:58:01;99978.06;;;14.38;100.00
19236;BME280;9752;54.270;12.470;2023-03-24T16:03:05;99986.25;;;15.06;100.00
19236;BME280;9752;54.270;12.470;2023-03-24T16:08:24;99990.84;;;14.29;100.00
19236;BME280;9752;54.270;12.470;2023-03-24T16:13:27;100001.88;;;13.94;100.00
19236;BME280;9752;54.270;12.470;2023-03-24T16:18:32;100016.97;;;13.53;100.00
19236;BME280;9752;54.270;12.470;2023-03-24T16:23:34;100000.94;;;14.45;100.00
19236;BME280;9752;54.270;12.470;2023-03-24T16:28:36;100002.84;;;13.96;100.00
19236;BME280;9752;54.270;12.470;2023-03-24T16:33:39;99994.59;;;14.10;100.00
19236;BME280;9752;54.270;12.470;2023-03-24T16:38:40;100006.69;;;13.82;100.00
19236;BME280;9752;54.270;12.470;2023-03-24T16:43:43;100005.09;;;13.37;100.00
19236;BME280;9752;54.270;12.470;2023-03-24T16:48:46;100014.16;;;12.78;100.00
19236;BME280;9752;54.270;12.470;2023-03-24T16:53:48;100029.84;;;12.36;100.00
19236;BME280;9752;54.270;12.470;2023-03-24T16:58:50;100026.06;;;12.27;100.00
19236;BME280;9752;54.270;12.470;2023-03-24T17:03:55;100030.88;;;11.97;100.00
19236;BME280;9752;54.270;12.470;2023-03-24T17:08:58;100029.63;;;10.91;100.00
19236;BME280;9752;54.270;12.470;2023-03-24T17:14:00;100028.41;;;10.47;100.00
19236;BME280;9752;54.270;12.470;2023-03-24T17:19:05;100029.78;;;10.23;100.00
19236;BME280;9752;54.270;12.470;2023-03-24T17:24:08;100039.50;;;9.92;100.00
19236;BME280;9752;54.270;12.470;2023-03-24T17:29:10;100040.38;;;9.58;100.00
19236;BME280;9752;54.270;12.470;2023-03-24T17:34:14;100044.16;;;8.99;100.00
19236;BME280;9752;54.270;12.470;2023-03-24T17:39:18;100051.16;;;8.54;100.00
19236;BME280;9752;54.270;12.470;2023-03-24T17:44:20;100045.97;;;8.39;100.00
19236;BME280;9752;54.270;12.470;2023-03-24T17:49:23;100046.28;;;8.29;100.00
19236;BME280;9752;54.270;12.470;2023-03-24T17:54:25;100049.28;;;8.07;100.00
19236;BME280;9752;54.270;12.470;2023-03-24T17:59:28;100052.91;;;7.51;100.00
19236;BME280;9752;54.270;12.470;2023-03-24T18:04:31;100060.84;;;7.13;100.00
19236;BME280;9752;54.270;12.470;2023-03-24T18:09:34;100059.72;;;6.81;100.00
19236;BME280;9752;54.270;12.470;2023-03-24T18:14:37;100048.38;;;6.64;100.00
19236;BME280;9752;54.270;12.470;2023-03-24T18:19:40;100045.13;;;6.53;100.00
19236;BME280;9752;54.270;12.470;2023-03-24T18:24:42;100048.78;;;6.30;100.00
19236;BME280;9752;54.270;12.470;2023-03-24T18:29:43;100046.28;;;6.18;100.00
19236;BME280;9752;54.270;12.470;2023-03-24T18:34:47;100048.44;;;5.99;100.00
19236;BME280;9752;54.270;12.470;2023-03-24T18:39:48;100048.59;;;5.89;100.00
19236;BME280;9752;54.270;12.470;2023-03-24T18:44:50;100046.00;;;5.75;100.00
19236;BME280;9752;54.270;12.470;2023-03-24T18:49:53;100055.47;;;5.76;100.00
19236;BME280;9752;54.270;12.470;2023-03-24T18:54:55;100054.28;;;5.58;100.00
19236;BME280;9752;54.270;12.470;2023-03-24T18:59:56;100051.44;;;5.41;100.00
19236;BME280;9752;54.270;12.470;2023-03-24T19:05:00;100054.88;;;5.17;100.00
19236;BME280;9752;54.270;12.470;2023-03-24T19:10:03;100050.88;;;5.08;100.00
19236;BME280;9752;54.270;12.470;2023-03-24T19:15:06;100048.31;;;5.08;100.00
19236;BME280;9752;54.270;12.470;2023-03-24T19:20:10;100052.41;;;5.18;100.00
19236;BME280;9752;54.270;12.470;2023-03-24T19:25:12;100055.09;;;5.20;100.00
19236;BME280;9752;54.270;12.470;2023-03-24T19:30:14;100049.72;;;5.17;100.00
19236;BME280;9752;54.270;12.470;2023-03-24T19:35:19;100056.50;;;5.28;100.00
19236;BME280;9752;54.270;12.470;2023-03-24T19:40:20;100053.41;;;5.45;100.00
19236;BME280;9752;54.270;12.470;2023-03-24T19:45:22;100049.00;;;5.56;100.00
19236;BME280;9752;54.270;12.470;2023-03-24T19:50:26;100049.38;;;5.87;100.00
19236;BME280;9752;54.270;12.470;2023-03-24T19:55:27;100058.75;;;5.99;100.00
19236;BME280;9752;54.270;12.470;2023-03-24T20:00:29;100057.03;;;5.99;100.00
19236;BME280;9752;54.270;12.470;2023-03-24T20:05:33;100060.94;;;6.06;100.00
19236;BME280;9752;54.270;12.470;2023-03-24T20:10:35;100058.56;;;5.96;100.00
19236;BME280;9752;54.270;12.470;2023-03-24T20:15:39;100057.28;;;5.77;100.00
19236;BME280;9752;54.270;12.470;2023-03-24T20:20:42;100047.13;;;5.67;100.00
19236;BME280;9752;54.270;12.470;2023-03-24T20:25:43;100055.97;;;5.71;100.00
19236;BME280;9752;54.270;12.470;2023-03-24T20:30:45;100060.00;;;5.67;100.00
19236;BME280;9752;54.270;12.470;2023-03-24T20:35:48;100109.78;;;6.18;100.00
19236;BME280;9752;54.270;12.470;2023-03-24T20:40:57;100127.31;;;7.03;100.00
19236;BME280;9752;54.270;12.470;2023-03-24T20:46:00;100125.38;;;7.41;100.00
19236;BME280;9752;54.270;12.470;2023-03-24T20:51:03;100122.22;;;7.60;100.00
19236;BME280;9752;54.270;12.470;2023-03-24T20:56:07;100103.75;;;7.67;100.00
19236;BME280;9752;54.270;12.470;2023-03-24T21:01:12;100093.63;;;7.57;100.00
19236;BME280;9752;54.270;12.470;2023-03-24T21:06:21;100081.03;;;7.61;100.00
19236;BME280;9752;54.270;12.470;2023-03-24T21:11:22;100093.56;;;7.55;100.00
19236;BME280;9752;54.270;12.470;2023-03-24T21:16:24;100091.91;;;7.71;100.00
19236;BME280;9752;54.270;12.470;2023-03-24T21:21:28;100082.38;;;7.70;100.00
19236;BME280;9752;54.270;12.470;2023-03-24T21:26:31;100082.69;;;7.46;100.00
19236;BME280;9752;54.270;12.470;2023-03-24T21:31:33;100088.00;;;7.34;100.00
19236;BME280;9752;54.270;12.470;2023-03-24T21:36:36;100087.91;;;7.33;100.00
19236;BME280;9752;54.270;12.470;2023-03-24T21:41:38;100090.22;;;7.15;100.00
19236;BME280;9752;54.270;12.470;2023-03-24T21:46:40;100094.41;;;6.99;100.00
19236;BME280;9752;54.270;12.470;2023-03-24T21:51:43;100102.53;;;6.92;100.00
19236;BME280;9752;54.270;12.470;2023-03-24T21:56:46;100111.38;;;6.82;100.00
19236;BME280;9752;54.270;12.470;2023-03-24T22:01:48;100114.69;;;6.53;100.00
19236;BME280;9752;54.270;12.470;2023-03-24T22:06:52;100124.34;;;6.31;100.00
19236;BME280;9752;54.270;12.470;2023-03-24T22:11:55;100131.34;;;6.20;100.00
19236;BME280;9752;54.270;12.470;2023-03-24T22:16:58;100144.41;;;6.10;100.00
19236;BME280;9752;54.270;12.470;2023-03-24T22:22:01;100149.38;;;6.20;100.00
19236;BME280;9752;54.270;12.470;2023-03-24T22:27:03;100159.31;;;6.27;100.00
19236;BME280;9752;54.270;12.470;2023-03-24T22:32:05;100182.19;;;6.22;100.00
19236;BME280;9752;54.270;12.470;2023-03-24T22:37:08;100192.50;;;6.22;100.00
19236;BME280;9752;54.270;12.470;2023-03-24T22:42:10;100203.94;;;6.14;100.00
19236;BME280;9752;54.270;12.470;2023-03-24T22:47:12;100207.09;;;6.10;100.00
19236;BME280;9752;54.270;12.470;2023-03-24T22:52:15;100223.66;;;6.14;100.00
19236;BME280;9752;54.270;12.470;2023-03-24T22:57:17;100238.16;;;6.25;100.00
19236;BME280;9752;54.270;12.470;2023-03-24T23:02:19;100256.53;;;6.18;100.00
19236;BME280;9752;54.270;12.470;2023-03-24T23:07:25;100272.53;;;6.25;100.00
19236;BME280;9752;54.270;12.470;2023-03-24T23:12:28;100287.72;;;6.09;100.00
19236;BME280;9752;54.270;12.470;2023-03-24T23:17:29;100300.00;;;6.13;100.00
19236;BME280;9752;54.270;12.470;2023-03-24T23:22:32;100315.94;;;6.08;100.00
19236;BME280;9752;54.270;12.470;2023-03-24T23:27:36;100346.94;;;6.09;100.00
19236;BME280;9752;54.270;12.470;2023-03-24T23:32:39;100349.28;;;6.06;100.00
19236;BME280;9752;54.270;12.470;2023-03-24T23:37:44;100361.63;;;5.98;100.00
19236;BME280;9752;54.270;12.470;2023-03-24T23:42:47;100376.06;;;5.96;100.00
19236;BME280;9752;54.270;12.470;2023-03-24T23:47:50;100385.09;;;5.91;100.00
19236;BME280;9752;54.270;12.470;2023-03-24T23:52:54;100394.94;;;5.85;100.00
19236;BME280;9752;54.270;12.470;2023-03-24T23:57:55;100401.34;;;6.02;100.00
